sensor_id;sensor_type;location;lat;lon;timestamp;temperature;humidity
12481;DHT22;6305;48.398;11.762;2023-04-24T00:00:21;10.30;99.90
12481;DHT22;6305;48.398;11.762;2023-04-24T00:02:48;10.30;99.90
12481;DHT22;6305;48.398;11.762;2023-04-24T00:05:17;10.30;99.90
12481;DHT22;6305;48.398;11.762;2023-04-24T00:07:44;10.30;99.90
12481;DHT22;6305;48.398;11.762;2023-04-24T00:10:11;10.20;99.90
12481;DHT22;6305;48.398;11.762;2023-04-24T00:12:40;10.20;99.90
12481;DHT22;6305;48.398;11.762;2023-04-24T00:15:08;10.20;99.90
12481;DHT22;6305;48.398;11.762;2023-04-24T00:17:35;10.10;99.90
12481;DHT22;6305;48.398;11.762;2023-04-24T00:20:03;10.10;99.90
12481;DHT22;6305;48.398;11.762;2023-04-24T00:22:31;10.10;99.90
12481;DHT22;6305;48.398;11.762;2023-04-24T00:24:58;10.00;99.90
12481;DHT22;6305;48.398;11.762;2023-04-24T00:27:25;10.00;99.90
12481;DHT22;6305;48.398;11.762;2023-04-24T00:29:53;10.00;99.90
12481;DHT22;6305;48.398;11.762;2023-04-24T00:32:20;10.00;99.90
12481;DHT22;6305;48.398;11.762;2023-04-24T00:34:48;10.00;99.90
12481;DHT22;6305;48.398;11.762;2023-04-24T00:37:15;9.90;99.90
12481;DHT22;6305;48.398;11.762;2023-04-24T00:39:44;9.90;99.90
12481;DHT22;6305;48.398;11.762;2023-04-24T00:42:11;9.90;99.90
12481;DHT22;6305;48.398;11.762;2023-04-24T00:44:38;9.80;99.90
12481;DHT22;6305;48.398;11.762;2023-04-24T00:47:07;9.80;99.90
12481;DHT22;6305;48.398;11.762;2023-04-24T00:49:34;9.80;99.90
12481;DHT22;6305;48.398;11.762;2023-04-24T00:52:01;9.80;99.90
12481;DHT22;6305;48.398;11.762;2023-04-24T00:54:33;9.80;99.90
12481;DHT22;6305;48.398;11.762;2023-04-24T00:57:00;9.80;99.90
12481;DHT22;6305;48.398;11.762;2023-04-24T00:59:28;9.80;99.90
12481;DHT22;6305;48.398;11.762;2023-04-24T01:01:56;9.80;99.90
12481;DHT22;6305;48.398;11.762;2023-04-24T01:04:25;9.80;99.90
12481;DHT22;6305;48.398;11.762;2023-04-24T01:06:53;9.80;99.90
12481;DHT22;6305;48.398;11.762;2023-04-24T01:09:22;9.80;99.90
12481;DHT22;6305;48.398;11.762;2023-04-24T01:11:50;9.80;99.90
12481;DHT22;6305;48.398;11.762;2023-04-24T01:14:17;9.80;99.90
12481;DHT22;6305;48.398;11.762;2023-04-24T01:16:44;9.70;99.90
12481;DHT22;6305;48.398;11.762;2023-04-24T01:19:11;9.70;99.90
12481;DHT22;6305;48.398;11.762;2023-04-24T01:21:42;9.80;99.90
12481;DHT22;6305;48.398;11.762;2023-04-24T01:24:11;9.70;99.90
12481;DHT22;6305;48.398;11.762;2023-04-24T01:26:39;9.70;99.90
12481;DHT22;6305;48.398;11.762;2023-04-24T01:29:06;9.70;99.90
12481;DHT22;6305;48.398;11.762;2023-04-24T01:31:34;9.70;99.90
12481;DHT22;6305;48.398;11.762;2023-04-24T01:34:02;9.70;99.90
12481;DHT22;6305;48.398;11.762;2023-04-24T01:36:30;9.60;99.90
12481;DHT22;6305;48.398;11.762;2023-04-24T01:38:58;9.60;99.90
12481;DHT22;6305;48.398;11.762;2023-04-24T01:41:27;9.60;99.90
12481;DHT22;6305;48.398;11.762;2023-04-24T01:43:55;9.60;99.90
12481;DHT22;6305;48.398;11.762;2023-04-24T01:46:22;9.50;99.90
12481;DHT22;6305;48.398;11.762;2023-04-24T01:48:51;9.50;99.90
12481;DHT22;6305;48.398;11.762;2023-04-24T01:51:19;9.50;99.90
12481;DHT22;6305;48.398;11.762;2023-04-24T01:53:46;9.40;99.90
12481;DHT22;6305;48.398;11.762;2023-04-24T01:56:15;9.40;99.90
12481;DHT22;6305;48.398;11.762;2023-04-24T01:58:44;9.40;99.90
12481;DHT22;6305;48.398;11.762;2023-04-24T02:01:15;9.40;99.90
12481;DHT22;6305;48.398;11.762;2023-04-24T02:03:44;9.40;99.90
12481;DHT22;6305;48.398;11.762;2023-04-24T02:06:11;9.40;99.90
12481;DHT22;6305;48.398;11.762;2023-04-24T02:08:38;9.30;99.90
12481;DHT22;6305;48.398;11.762;2023-04-24T02:11:06;9.30;99.90
12481;DHT22;6305;48.398;11.762;2023-04-24T02:13:33;9.30;99.90
12481;DHT22;6305;48.398;11.762;2023-04-24T02:16:02;9.30;99.90
12481;DHT22;6305;48.398;11.762;2023-04-24T02:18:30;9.20;99.90
12481;DHT22;6305;48.398;11.762;2023-04-24T02:20:57;9.20;99.90
12481;DHT22;6305;48.398;11.762;2023-04-24T02:23:24;9.20;99.90
12481;DHT22;6305;48.398;11.762;2023-04-24T02:25:53;9.20;99.90
12481;DHT22;6305;48.398;11.762;2023-04-24T02:28:20;9.20;99.90
12481;DHT22;6305;48.398;11.762;2023-04-24T02:30:47;9.20;99.90
12481;DHT22;6305;48.398;11.762;2023-04-24T02:33:16;9.10;99.90
12481;DHT22;6305;48.398;11.762;2023-04-24T02:35:43;9.10;99.90
12481;DHT22;6305;48.398;11.762;2023-04-24T02:38:10;9.10;99.90
12481;DHT22;6305;48.398;11.762;2023-04-24T02:40:37;9.10;99.90
12481;DHT22;6305;48.398;11.762;2023-04-24T02:43:04;9.10;99.90
12481;DHT22;6305;48.398;11.762;2023-04-24T02:45:31;9.00;99.90
12481;DHT22;6305;48.398;11.762;2023-04-24T02:48:00;9.00;99.90
12481;DHT22;6305;48.398;11.762;2023-04-24T02:50:29;9.00;99.90
12481;DHT22;6305;48.398;11.762;2023-04-24T02:52:56;8.90;99.90
12481;DHT22;6305;48.398;11.762;2023-04-24T02:55:22;8.90;99.90
12481;DHT22;6305;48.398;11.762;2023-04-24T02:57:50;8.90;99.90
12481;DHT22;6305;48.398;11.762;2023-04-24T03:00:18;8.90;99.90
12481;DHT22;6305;48.398;11.762;2023-04-24T03:02:45;8.90;99.90
12481;DHT22;6305;48.398;11.762;2023-04-24T03:05:12;8.90;99.90
12481;DHT22;6305;48.398;11.762;2023-04-24T03:07:41;8.90;99.90
12481;DHT22;6305;48.398;11.762;2023-04-24T03:10:08;8.90;99.90
12481;DHT22;6305;48.398;11.762;2023-04-24T03:12:35;8.90;99.90
12481;DHT22;6305;48.398;11.762;2023-04-24T03:15:03;8.90;99.90
12481;DHT22;6305;48.398;11.762;2023-04-24T03:17:30;8.90;99.90
12481;DHT22;6305;48.398;11.762;2023-04-24T03:19:57;8.90;99.90
12481;DHT22;6305;48.398;11.762;2023-04-24T03:22:24;8.80;99.90
12481;DHT22;6305;48.398;11.762;2023-04-24T03:24:53;8.80;99.90
12481;DHT22;6305;48.398;11.762;2023-04-24T03:27:22;8.80;99.90
12481;DHT22;6305;48.398;11.762;2023-04-24T03:29:55;8.80;99.90
12481;DHT22;6305;48.398;11.762;2023-04-24T03:32:26;8.80;99.90
12481;DHT22;6305;48.398;11.762;2023-04-24T03:34:53;8.80;99.90
12481;DHT22;6305;48.398;11.762;2023-04-24T03:37:20;8.80;99.90
12481;DHT22;6305;48.398;11.762;2023-04-24T03:39:58;8.80;99.90
12481;DHT22;6305;48.398;11.762;2023-04-24T03:42:25;8.80;99.90
12481;DHT22;6305;48.398;11.762;2023-04-24T03:44:55;8.80;99.90
12481;DHT22;6305;48.398;11.762;2023-04-24T03:47:26;8.80;99.90
12481;DHT22;6305;48.398;11.762;2023-04-24T03:49:56;8.80;99.90
12481;DHT22;6305;48.398;11.762;2023-04-24T03:52:23;8.80;99.90
12481;DHT22;6305;48.398;11.762;2023-04-24T03:54:50;8.80;99.90
12481;DHT22;6305;48.398;11.762;2023-04-24T03:57:19;8.80;99.90
12481;DHT22;6305;48.398;11.762;2023-04-24T03:59:58;8.70;99.90
12481;DHT22;6305;48.398;11.762;2023-04-24T04:02:26;8.80;99.90
12481;DHT22;6305;48.398;11.762;2023-04-24T04:04:53;8.70;99.90
12481;DHT22;6305;48.398;11.762;2023-04-24T04:07:20;8.70;99.90
12481;DHT22;6305;48.398;11.762;2023-04-24T04:09:47;8.70;99.90
12481;DHT22;6305;48.398;11.762;2023-04-24T04:12:15;8.70;99.90
12481;DHT22;6305;48.398;11.762;2023-04-24T04:14:44;8.70;99.90
12481;DHT22;6305;48.398;11.762;2023-04-24T04:17:11;8.70;99.90
12481;DHT22;6305;48.398;11.762;2023-04-24T04:19:38;8.70;99.90
12481;DHT22;6305;48.398;11.762;2023-04-24T04:22:05;8.70;99.90
12481;DHT22;6305;48.398;11.762;2023-04-24T04:24:40;8.70;99.90
12481;DHT22;6305;48.398;11.762;2023-04-24T04:27:08;8.70;99.90
12481;DHT22;6305;48.398;11.762;2023-04-24T04:29:44;8.70;99.90
12481;DHT22;6305;48.398;11.762;2023-04-24T04:32:13;8.70;99.90
12481;DHT22;6305;48.398;11.762;2023-04-24T04:34:41;8.70;99.90
12481;DHT22;6305;48.398;11.762;2023-04-24T04:37:11;8.70;99.90
12481;DHT22;6305;48.398;11.762;2023-04-24T04:39:55;8.70;99.90
12481;DHT22;6305;48.398;11.762;2023-04-24T04:42:25;8.70;99.90
12481;DHT22;6305;48.398;11.762;2023-04-24T04:44:54;8.80;99.90
12481;DHT22;6305;48.398;11.762;2023-04-24T04:47:29;8.80;99.90
12481;DHT22;6305;48.398;11.762;2023-04-24T04:49:58;8.80;99.90
12481;DHT22;6305;48.398;11.762;2023-04-24T04:52:27;8.80;99.90
12481;DHT22;6305;48.398;11.762;2023-04-24T04:55:04;8.80;99.90
12481;DHT22;6305;48.398;11.762;2023-04-24T04:57:51;8.80;99.90
12481;DHT22;6305;48.398;11.762;2023-04-24T05:00:19;8.90;99.90
12481;DHT22;6305;48.398;11.762;2023-04-24T05:02:50;8.90;99.90
12481;DHT22;6305;48.398;11.762;2023-04-24T05:05:18;8.90;99.90
12481;DHT22;6305;48.398;11.762;2023-04-24T05:07:46;8.90;99.90
12481;DHT22;6305;48.398;11.762;2023-04-24T05:10:12;8.90;99.90
12481;DHT22;6305;48.398;11.762;2023-04-24T05:12:39;8.90;99.90
12481;DHT22;6305;48.398;11.762;2023-04-24T05:15:07;8.90;99.90
12481;DHT22;6305;48.398;11.762;2023-04-24T05:17:36;8.90;99.90
12481;DHT22;6305;48.398;11.762;2023-04-24T05:20:04;9.00;99.90
12481;DHT22;6305;48.398;11.762;2023-04-24T05:22:32;9.00;99.90
12481;DHT22;6305;48.398;11.762;2023-04-24T05:24:59;9.00;99.90
12481;DHT22;6305;48.398;11.762;2023-04-24T05:27:34;9.00;99.90
12481;DHT22;6305;48.398;11.762;2023-04-24T05:30:05;9.00;99.90
12481;DHT22;6305;48.398;11.762;2023-04-24T05:32:32;9.00;99.90
12481;DHT22;6305;48.398;11.762;2023-04-24T05:35:00;9.10;99.90
12481;DHT22;6305;48.398;11.762;2023-04-24T05:37:27;9.10;99.90
12481;DHT22;6305;48.398;11.762;2023-04-24T05:39:54;9.10;99.90
12481;DHT22;6305;48.398;11.762;2023-04-24T05:42:22;9.20;99.90
12481;DHT22;6305;48.398;11.762;2023-04-24T05:44:49;9.20;99.90
12481;DHT22;6305;48.398;11.762;2023-04-24T05:47:16;9.30;99.90
12481;DHT22;6305;48.398;11.762;2023-04-24T05:49:43;9.40;99.90
12481;DHT22;6305;48.398;11.762;2023-04-24T05:52:12;9.40;99.90
12481;DHT22;6305;48.398;11.762;2023-04-24T05:54:40;9.50;99.90
12481;DHT22;6305;48.398;11.762;2023-04-24T05:57:09;9.50;99.90
12481;DHT22;6305;48.398;11.762;2023-04-24T05:59:48;9.50;99.90
12481;DHT22;6305;48.398;11.762;2023-04-24T06:02:17;9.50;99.90
12481;DHT22;6305;48.398;11.762;2023-04-24T06:04:44;9.50;99.90
12481;DHT22;6305;48.398;11.762;2023-04-24T06:07:13;9.50;99.90
12481;DHT22;6305;48.398;11.762;2023-04-24T06:09:42;9.50;99.90
12481;DHT22;6305;48.398;11.762;2023-04-24T06:12:10;9.60;99.90
12481;DHT22;6305;48.398;11.762;2023-04-24T06:14:51;9.70;99.90
12481;DHT22;6305;48.398;11.762;2023-04-24T06:17:25;9.70;99.90
12481;DHT22;6305;48.398;11.762;2023-04-24T06:19:52;9.80;99.90
12481;DHT22;6305;48.398;11.762;2023-04-24T06:22:23;9.90;99.90
12481;DHT22;6305;48.398;11.762;2023-04-24T06:24:50;10.00;99.90
12481;DHT22;6305;48.398;11.762;2023-04-24T06:27:17;10.10;99.90
12481;DHT22;6305;48.398;11.762;2023-04-24T06:29:44;10.20;99.90
12481;DHT22;6305;48.398;11.762;2023-04-24T06:32:11;10.20;99.90
12481;DHT22;6305;48.398;11.762;2023-04-24T06:34:38;10.20;99.90
12481;DHT22;6305;48.398;11.762;2023-04-24T06:37:05;10.30;99.90
12481;DHT22;6305;48.398;11.762;2023-04-24T06:39:34;10.40;99.90
12481;DHT22;6305;48.398;11.762;2023-04-24T06:42:00;10.50;99.90
12481;DHT22;6305;48.398;11.762;2023-04-24T06:44:28;10.80;99.90
12481;DHT22;6305;48.398;11.762;2023-04-24T06:46:55;11.00;99.90
12481;DHT22;6305;48.398;11.762;2023-04-24T06:49:22;11.10;99.90
12481;DHT22;6305;48.398;11.762;2023-04-24T06:51:49;11.20;99.90
12481;DHT22;6305;48.398;11.762;2023-04-24T06:54:16;11.30;99.90
12481;DHT22;6305;48.398;11.762;2023-04-24T06:56:44;11.40;99.90
12481;DHT22;6305;48.398;11.762;2023-04-24T06:59:13;11.60;99.90
12481;DHT22;6305;48.398;11.762;2023-04-24T07:01:40;11.40;99.90
12481;DHT22;6305;48.398;11.762;2023-04-24T07:04:07;11.30;99.90
12481;DHT22;6305;48.398;11.762;2023-04-24T07:06:35;11.20;99.90
12481;DHT22;6305;48.398;11.762;2023-04-24T07:09:03;11.10;99.90
12481;DHT22;6305;48.398;11.762;2023-04-24T07:11:29;11.10;99.90
12481;DHT22;6305;48.398;11.762;2023-04-24T07:13:58;11.30;99.90
12481;DHT22;6305;48.398;11.762;2023-04-24T07:16:25;11.70;99.90
12481;DHT22;6305;48.398;11.762;2023-04-24T07:18:52;11.90;99.90
12481;DHT22;6305;48.398;11.762;2023-04-24T07:21:19;12.20;99.90
12481;DHT22;6305;48.398;11.762;2023-04-24T07:23:46;12.40;99.90
12481;DHT22;6305;48.398;11.762;2023-04-24T07:26:13;12.50;99.90
12481;DHT22;6305;48.398;11.762;2023-04-24T07:28:40;12.60;99.90
12481;DHT22;6305;48.398;11.762;2023-04-24T07:31:10;13.00;99.90
12481;DHT22;6305;48.398;11.762;2023-04-24T07:33:38;14.00;99.90
12481;DHT22;6305;48.398;11.762;2023-04-24T07:36:05;15.60;99.90
12481;DHT22;6305;48.398;11.762;2023-04-24T07:38:32;16.80;99.90
12481;DHT22;6305;48.398;11.762;2023-04-24T07:40:59;17.40;99.90
12481;DHT22;6305;48.398;11.762;2023-04-24T07:43:26;17.20;99.90
12481;DHT22;6305;48.398;11.762;2023-04-24T07:45:54;16.50;99.90
12481;DHT22;6305;48.398;11.762;2023-04-24T07:48:22;16.00;99.90
12481;DHT22;6305;48.398;11.762;2023-04-24T07:50:51;15.60;99.90
12481;DHT22;6305;48.398;11.762;2023-04-24T07:53:19;15.50;99.90
12481;DHT22;6305;48.398;11.762;2023-04-24T07:55:46;15.60;99.90
12481;DHT22;6305;48.398;11.762;2023-04-24T07:58:13;16.10;99.90
12481;DHT22;6305;48.398;11.762;2023-04-24T08:00:41;16.10;99.90
12481;DHT22;6305;48.398;11.762;2023-04-24T08:03:08;16.40;99.90
12481;DHT22;6305;48.398;11.762;2023-04-24T08:05:36;16.60;99.90
12481;DHT22;6305;48.398;11.762;2023-04-24T08:08:03;16.40;97.30
12481;DHT22;6305;48.398;11.762;2023-04-24T08:10:30;15.80;97.90
12481;DHT22;6305;48.398;11.762;2023-04-24T08:12:57;15.20;99.90
12481;DHT22;6305;48.398;11.762;2023-04-24T08:15:25;14.70;99.90
12481;DHT22;6305;48.398;11.762;2023-04-24T08:17:52;14.30;99.90
12481;DHT22;6305;48.398;11.762;2023-04-24T08:20:19;14.20;99.90
12481;DHT22;6305;48.398;11.762;2023-04-24T08:22:47;14.20;99.90
12481;DHT22;6305;48.398;11.762;2023-04-24T08:25:14;14.10;99.90
12481;DHT22;6305;48.398;11.762;2023-04-24T08:27:41;13.80;99.90
12481;DHT22;6305;48.398;11.762;2023-04-24T08:30:09;13.60;99.90
12481;DHT22;6305;48.398;11.762;2023-04-24T08:32:37;13.60;99.90
12481;DHT22;6305;48.398;11.762;2023-04-24T08:35:05;13.70;99.90
12481;DHT22;6305;48.398;11.762;2023-04-24T08:37:34;13.80;99.90
12481;DHT22;6305;48.398;11.762;2023-04-24T08:40:06;13.90;99.90
12481;DHT22;6305;48.398;11.762;2023-04-24T08:42:37;13.80;99.90
12481;DHT22;6305;48.398;11.762;2023-04-24T08:45:05;13.30;99.90
12481;DHT22;6305;48.398;11.762;2023-04-24T08:47:36;12.00;99.90
12481;DHT22;6305;48.398;11.762;2023-04-24T08:50:05;11.00;99.90
12481;DHT22;6305;48.398;11.762;2023-04-24T08:52:34;10.30;99.90
12481;DHT22;6305;48.398;11.762;2023-04-24T08:55:03;9.80;99.90
12481;DHT22;6305;48.398;11.762;2023-04-24T08:57:31;9.40;99.90
12481;DHT22;6305;48.398;11.762;2023-04-24T08:59:59;9.20;99.90
12481;DHT22;6305;48.398;11.762;2023-04-24T09:02:27;9.20;99.90
12481;DHT22;6305;48.398;11.762;2023-04-24T09:04:56;9.20;99.90
12481;DHT22;6305;48.398;11.762;2023-04-24T09:07:24;9.40;99.90
12481;DHT22;6305;48.398;11.762;2023-04-24T09:09:53;9.70;99.90
12481;DHT22;6305;48.398;11.762;2023-04-24T09:12:22;10.00;99.90
12481;DHT22;6305;48.398;11.762;2023-04-24T09:14:49;10.30;99.90
12481;DHT22;6305;48.398;11.762;2023-04-24T09:17:17;10.50;99.90
12481;DHT22;6305;48.398;11.762;2023-04-24T09:19:44;10.70;99.90
12481;DHT22;6305;48.398;11.762;2023-04-24T09:22:11;10.90;99.90
12481;DHT22;6305;48.398;11.762;2023-04-24T09:24:38;11.10;99.90
12481;DHT22;6305;48.398;11.762;2023-04-24T09:27:07;11.60;99.90
12481;DHT22;6305;48.398;11.762;2023-04-24T09:29:35;12.20;99.90
12481;DHT22;6305;48.398;11.762;2023-04-24T09:32:18;12.70;99.90
12481;DHT22;6305;48.398;11.762;2023-04-24T09:34:47;13.10;99.90
12481;DHT22;6305;48.398;11.762;2023-04-24T09:37:27;13.40;99.90
12481;DHT22;6305;48.398;11.762;2023-04-24T09:40:08;13.60;99.90
12481;DHT22;6305;48.398;11.762;2023-04-24T09:42:36;13.80;99.90
12481;DHT22;6305;48.398;11.762;2023-04-24T09:45:08;14.10;99.90
12481;DHT22;6305;48.398;11.762;2023-04-24T09:47:36;14.60;99.90
12481;DHT22;6305;48.398;11.762;2023-04-24T09:50:10;15.00;99.90
12481;DHT22;6305;48.398;11.762;2023-04-24T09:52:40;15.10;99.50
12481;DHT22;6305;48.398;11.762;2023-04-24T09:55:19;15.10;97.80
12481;DHT22;6305;48.398;11.762;2023-04-24T09:57:55;15.20;95.60
12481;DHT22;6305;48.398;11.762;2023-04-24T10:00:25;15.70;94.90
12481;DHT22;6305;48.398;11.762;2023-04-24T10:02:59;16.20;94.50
12481;DHT22;6305;48.398;11.762;2023-04-24T10:05:28;16.50;90.30
12481;DHT22;6305;48.398;11.762;2023-04-24T10:08:02;16.50;85.90
12481;DHT22;6305;48.398;11.762;2023-04-24T10:10:31;16.50;80.80
12481;DHT22;6305;48.398;11.762;2023-04-24T10:12:59;16.20;80.80
12481;DHT22;6305;48.398;11.762;2023-04-24T10:15:28;15.90;81.60
12481;DHT22;6305;48.398;11.762;2023-04-24T10:17:57;15.80;83.00
12481;DHT22;6305;48.398;11.762;2023-04-24T10:20:27;15.90;84.60
12481;DHT22;6305;48.398;11.762;2023-04-24T10:22:55;16.10;80.30
12481;DHT22;6305;48.398;11.762;2023-04-24T10:25:24;16.50;78.10
12481;DHT22;6305;48.398;11.762;2023-04-24T10:27:52;16.80;71.00
12481;DHT22;6305;48.398;11.762;2023-04-24T10:30:23;16.90;68.40
12481;DHT22;6305;48.398;11.762;2023-04-24T10:32:51;17.30;66.50
12481;DHT22;6305;48.398;11.762;2023-04-24T10:35:18;17.70;65.10
12481;DHT22;6305;48.398;11.762;2023-04-24T10:37:50;18.20;63.90
12481;DHT22;6305;48.398;11.762;2023-04-24T10:40:18;18.20;60.50
12481;DHT22;6305;48.398;11.762;2023-04-24T10:42:51;17.60;60.30
12481;DHT22;6305;48.398;11.762;2023-04-24T10:45:20;17.20;60.20
12481;DHT22;6305;48.398;11.762;2023-04-24T10:47:53;17.00;62.50
12481;DHT22;6305;48.398;11.762;2023-04-24T10:50:20;17.30;64.40
12481;DHT22;6305;48.398;11.762;2023-04-24T10:52:48;18.00;62.20
12481;DHT22;6305;48.398;11.762;2023-04-24T10:55:18;18.30;60.50
12481;DHT22;6305;48.398;11.762;2023-04-24T10:58:05;19.40;60.60
12481;DHT22;6305;48.398;11.762;2023-04-24T11:00:32;21.10;54.80
12481;DHT22;6305;48.398;11.762;2023-04-24T11:03:04;21.90;52.80
12481;DHT22;6305;48.398;11.762;2023-04-24T11:05:52;22.00;50.10
12481;DHT22;6305;48.398;11.762;2023-04-24T11:08:36;21.80;49.40
12481;DHT22;6305;48.398;11.762;2023-04-24T11:11:08;20.20;50.60
12481;DHT22;6305;48.398;11.762;2023-04-24T11:14:01;19.00;52.90
12481;DHT22;6305;48.398;11.762;2023-04-24T11:16:30;17.50;55.30
12481;DHT22;6305;48.398;11.762;2023-04-24T11:19:04;16.20;58.30
12481;DHT22;6305;48.398;11.762;2023-04-24T11:21:38;15.20;62.80
12481;DHT22;6305;48.398;11.762;2023-04-24T11:24:23;14.20;82.70
12481;DHT22;6305;48.398;11.762;2023-04-24T11:26:51;12.60;99.90
12481;DHT22;6305;48.398;11.762;2023-04-24T11:29:19;11.50;99.90
12481;DHT22;6305;48.398;11.762;2023-04-24T11:31:47;10.90;99.90
12481;DHT22;6305;48.398;11.762;2023-04-24T11:34:18;10.60;99.90
12481;DHT22;6305;48.398;11.762;2023-04-24T11:36:46;10.50;99.90
12481;DHT22;6305;48.398;11.762;2023-04-24T11:39:13;10.70;99.90
12481;DHT22;6305;48.398;11.762;2023-04-24T11:41:41;11.00;99.90
12481;DHT22;6305;48.398;11.762;2023-04-24T11:44:08;11.10;99.90
12481;DHT22;6305;48.398;11.762;2023-04-24T11:46:35;11.20;99.90
12481;DHT22;6305;48.398;11.762;2023-04-24T11:49:05;11.50;99.90
12481;DHT22;6305;48.398;11.762;2023-04-24T11:51:34;11.30;99.90
12481;DHT22;6305;48.398;11.762;2023-04-24T11:54:01;11.30;99.90
12481;DHT22;6305;48.398;11.762;2023-04-24T11:56:29;11.40;99.90
12481;DHT22;6305;48.398;11.762;2023-04-24T11:58:56;11.30;99.90
12481;DHT22;6305;48.398;11.762;2023-04-24T12:01:23;11.40;99.90
12481;DHT22;6305;48.398;11.762;2023-04-24T12:03:51;11.40;99.90
12481;DHT22;6305;48.398;11.762;2023-04-24T12:06:26;11.60;99.90
12481;DHT22;6305;48.398;11.762;2023-04-24T12:08:54;11.90;99.90
12481;DHT22;6305;48.398;11.762;2023-04-24T12:11:23;12.10;99.90
12481;DHT22;6305;48.398;11.762;2023-04-24T12:13:51;12.60;99.90
12481;DHT22;6305;48.398;11.762;2023-04-24T12:16:18;13.20;99.90
12481;DHT22;6305;48.398;11.762;2023-04-24T12:18:45;14.30;99.90
12481;DHT22;6305;48.398;11.762;2023-04-24T12:21:20;15.40;99.90
12481;DHT22;6305;48.398;11.762;2023-04-24T12:23:47;16.70;99.90
12481;DHT22;6305;48.398;11.762;2023-04-24T12:26:20;18.20;99.30
12481;DHT22;6305;48.398;11.762;2023-04-24T12:28:49;19.10;88.50
12481;DHT22;6305;48.398;11.762;2023-04-24T12:31:16;19.70;70.70
12481;DHT22;6305;48.398;11.762;2023-04-24T12:33:43;20.60;70.40
12481;DHT22;6305;48.398;11.762;2023-04-24T12:36:11;21.00;62.20
12481;DHT22;6305;48.398;11.762;2023-04-24T12:38:39;20.90;59.70
12481;DHT22;6305;48.398;11.762;2023-04-24T12:41:13;20.90;59.10
12481;DHT22;6305;48.398;11.762;2023-04-24T12:43:52;21.00;56.70
12481;DHT22;6305;48.398;11.762;2023-04-24T12:46:19;20.40;56.20
12481;DHT22;6305;48.398;11.762;2023-04-24T12:48:46;20.20;56.10
12481;DHT22;6305;48.398;11.762;2023-04-24T12:51:13;19.70;55.00
12481;DHT22;6305;48.398;11.762;2023-04-24T12:53:40;19.10;56.90
12481;DHT22;6305;48.398;11.762;2023-04-24T12:56:07;18.60;56.80
12481;DHT22;6305;48.398;11.762;2023-04-24T12:58:34;18.10;56.80
12481;DHT22;6305;48.398;11.762;2023-04-24T13:01:02;17.60;57.30
12481;DHT22;6305;48.398;11.762;2023-04-24T13:03:29;16.90;56.70
12481;DHT22;6305;48.398;11.762;2023-04-24T13:05:56;16.40;58.70
12481;DHT22;6305;48.398;11.762;2023-04-24T13:08:23;16.40;59.40
12481;DHT22;6305;48.398;11.762;2023-04-24T13:10:50;16.60;59.20
12481;DHT22;6305;48.398;11.762;2023-04-24T13:13:19;17.00;58.00
12481;DHT22;6305;48.398;11.762;2023-04-24T13:15:46;17.30;58.00
12481;DHT22;6305;48.398;11.762;2023-04-24T13:18:15;17.40;56.00
12481;DHT22;6305;48.398;11.762;2023-04-24T13:20:42;16.90;56.30
12481;DHT22;6305;48.398;11.762;2023-04-24T13:23:09;16.00;56.60
12481;DHT22;6305;48.398;11.762;2023-04-24T13:25:36;15.70;56.70
12481;DHT22;6305;48.398;11.762;2023-04-24T13:28:04;15.80;56.40
12481;DHT22;6305;48.398;11.762;2023-04-24T13:30:32;16.10;55.70
12481;DHT22;6305;48.398;11.762;2023-04-24T13:32:58;17.20;56.50
12481;DHT22;6305;48.398;11.762;2023-04-24T13:35:27;19.20;54.90
12481;DHT22;6305;48.398;11.762;2023-04-24T13:37:54;20.60;48.40
12481;DHT22;6305;48.398;11.762;2023-04-24T13:40:21;21.70;45.40
12481;DHT22;6305;48.398;11.762;2023-04-24T13:42:48;22.50;43.30
12481;DHT22;6305;48.398;11.762;2023-04-24T13:45:15;22.40;40.60
12481;DHT22;6305;48.398;11.762;2023-04-24T13:47:42;21.70;39.90
12481;DHT22;6305;48.398;11.762;2023-04-24T13:50:10;21.20;40.50
12481;DHT22;6305;48.398;11.762;2023-04-24T13:52:38;20.80;41.50
12481;DHT22;6305;48.398;11.762;2023-04-24T13:55:06;21.20;42.60
12481;DHT22;6305;48.398;11.762;2023-04-24T13:57:33;21.50;42.00
12481;DHT22;6305;48.398;11.762;2023-04-24T14:00:00;21.80;41.50
12481;DHT22;6305;48.398;11.762;2023-04-24T14:02:33;21.20;41.90
12481;DHT22;6305;48.398;11.762;2023-04-24T14:05:00;20.00;43.70
12481;DHT22;6305;48.398;11.762;2023-04-24T14:07:29;18.70;45.10
12481;DHT22;6305;48.398;11.762;2023-04-24T14:09:57;17.60;47.10
12481;DHT22;6305;48.398;11.762;2023-04-24T14:12:24;16.60;48.60
12481;DHT22;6305;48.398;11.762;2023-04-24T14:14:51;16.00;49.90
12481;DHT22;6305;48.398;11.762;2023-04-24T14:17:18;15.50;50.70
12481;DHT22;6305;48.398;11.762;2023-04-24T14:19:45;15.20;51.60
12481;DHT22;6305;48.398;11.762;2023-04-24T14:22:12;14.90;52.50
12481;DHT22;6305;48.398;11.762;2023-04-24T14:24:40;15.20;53.20
12481;DHT22;6305;48.398;11.762;2023-04-24T14:27:08;15.90;53.20
12481;DHT22;6305;48.398;11.762;2023-04-24T14:29:35;16.70;51.30
12481;DHT22;6305;48.398;11.762;2023-04-24T14:32:02;18.40;48.30
12481;DHT22;6305;48.398;11.762;2023-04-24T14:34:29;20.00;45.00
12481;DHT22;6305;48.398;11.762;2023-04-24T14:36:56;19.80;42.70
12481;DHT22;6305;48.398;11.762;2023-04-24T14:39:24;18.90;43.20
12481;DHT22;6305;48.398;11.762;2023-04-24T14:41:51;18.00;44.40
12481;DHT22;6305;48.398;11.762;2023-04-24T14:44:19;17.40;45.90
12481;DHT22;6305;48.398;11.762;2023-04-24T14:46:48;16.90;47.30
12481;DHT22;6305;48.398;11.762;2023-04-24T14:49:15;17.00;47.50
12481;DHT22;6305;48.398;11.762;2023-04-24T14:51:43;17.70;47.30
12481;DHT22;6305;48.398;11.762;2023-04-24T14:54:10;18.40;46.10
12481;DHT22;6305;48.398;11.762;2023-04-24T14:56:37;19.10;44.90
12481;DHT22;6305;48.398;11.762;2023-04-24T14:59:06;19.50;44.50
12481;DHT22;6305;48.398;11.762;2023-04-24T15:01:34;19.40;43.80
12481;DHT22;6305;48.398;11.762;2023-04-24T15:04:01;18.60;44.30
12481;DHT22;6305;48.398;11.762;2023-04-24T15:06:29;17.70;45.30
12481;DHT22;6305;48.398;11.762;2023-04-24T15:08:57;17.10;46.50
12481;DHT22;6305;48.398;11.762;2023-04-24T15:11:24;16.70;48.00
12481;DHT22;6305;48.398;11.762;2023-04-24T15:13:51;16.40;48.60
12481;DHT22;6305;48.398;11.762;2023-04-24T15:16:18;16.10;48.30
12481;DHT22;6305;48.398;11.762;2023-04-24T15:18:47;16.20;48.50
12481;DHT22;6305;48.398;11.762;2023-04-24T15:21:14;16.80;47.80
12481;DHT22;6305;48.398;11.762;2023-04-24T15:23:41;17.30;47.10
12481;DHT22;6305;48.398;11.762;2023-04-24T15:26:08;17.30;45.20
12481;DHT22;6305;48.398;11.762;2023-04-24T15:28:35;16.90;45.80
12481;DHT22;6305;48.398;11.762;2023-04-24T15:31:02;16.60;46.50
12481;DHT22;6305;48.398;11.762;2023-04-24T15:33:29;16.50;47.50
12481;DHT22;6305;48.398;11.762;2023-04-24T15:35:57;16.30;47.60
12481;DHT22;6305;48.398;11.762;2023-04-24T15:38:25;15.70;48.00
12481;DHT22;6305;48.398;11.762;2023-04-24T15:40:52;15.40;49.50
12481;DHT22;6305;48.398;11.762;2023-04-24T15:43:19;15.20;50.00
12481;DHT22;6305;48.398;11.762;2023-04-24T15:45:46;15.30;50.10